sensor_id;sensor_type;location;lat;lon;timestamp;pressure;altitude;pressure_sealevel;temperature;humidity
30636;BME280;17400;52.392;9.750;2024-02-21T00:01:14;101439.34;;;9.58;100.00
30636;BME280;17400;52.392;9.750;2024-02-21T00:04:03;101447.81;;;9.55;100.00
30636;BME280;17400;52.392;9.750;2024-02-21T00:06:49;101438.19;;;9.53;100.00
30636;BME280;17400;52.392;9.750;2024-02-21T00:09:35;101439.84;;;9.54;100.00
30636;BME280;17400;52.392;9.750;2024-02-21T00:12:22;101428.22;;;9.53;100.00
30636;BME280;17400;52.392;9.750;2024-02-21T00:15:09;101429.41;;;9.50;100.00
30636;BME280;17400;52.392;9.750;2024-02-21T00:17:55;101425.50;;;9.53;100.00
30636;BME280;17400;52.392;9.750;2024-02-21T00:20:43;101419.94;;;9.55;100.00
30636;BME280;17400;52.392;9.750;2024-02-21T00:23:29;101407.94;;;9.57;100.00
30636;BME280;17400;52.392;9.750;2024-02-21T00:26:15;101412.16;;;9.60;100.00
30636;BME280;17400;52.392;9.750;2024-02-21T00:29:02;101412.16;;;9.60;100.00
30636;BME280;17400;52.392;9.750;2024-02-21T00:31:52;101413.16;;;9.59;100.00
30636;BME280;17400;52.392;9.750;2024-02-21T00:34:39;101411.31;;;9.59;100.00
30636;BME280;17400;52.392;9.750;2024-02-21T00:37:26;101407.09;;;9.57;100.00
30636;BME280;17400;52.392;9.750;2024-02-21T00:40:15;101397.63;;;9.61;100.00
30636;BME280;17400;52.392;9.750;2024-02-21T00:43:05;101394.09;;;9.52;100.00
30636;BME280;17400;52.392;9.750;2024-02-21T00:45:52;101388.00;;;9.58;100.00
30636;BME280;17400;52.392;9.750;2024-02-21T00:48:38;101387.50;;;9.55;100.00
30636;BME280;17400;52.392;9.750;2024-02-21T00:51:24;101390.00;;;9.56;100.00
30636;BME280;17400;52.392;9.750;2024-02-21T00:54:12;101393.59;;;9.57;100.00
30636;BME280;17400;52.392;9.750;2024-02-21T00:56:58;101366.25;;;9.43;100.00
30636;BME280;17400;52.392;9.750;2024-02-21T00:59:44;101369.25;;;9.48;100.00
30636;BME280;17400;52.392;9.750;2024-02-21T01:02:30;101362.00;;;9.49;100.00
30636;BME280;17400;52.392;9.750;2024-02-21T01:05:17;101358.44;;;9.48;100.00
30636;BME280;17400;52.392;9.750;2024-02-21T01:08:05;101356.59;;;9.49;100.00
30636;BME280;17400;52.392;9.750;2024-02-21T01:10:52;101363.84;;;9.57;100.00
30636;BME280;17400;52.392;9.750;2024-02-21T01:13:39;101362.19;;;9.47;100.00
30636;BME280;17400;52.392;9.750;2024-02-21T01:16:26;101353.53;;;9.52;100.00
30636;BME280;17400;52.392;9.750;2024-02-21T01:19:12;101346.94;;;9.55;100.00
30636;BME280;17400;52.392;9.750;2024-02-21T01:21:59;101344.78;;;9.50;100.00
30636;BME280;17400;52.392;9.750;2024-02-21T01:24:45;101354.03;;;9.56;100.00
30636;BME280;17400;52.392;9.750;2024-02-21T01:27:33;101346.75;;;9.56;100.00
30636;BME280;17400;52.392;9.750;2024-02-21T01:30:19;101334.13;;;9.57;100.00
30636;BME280;17400;52.392;9.750;2024-02-21T01:33:05;101332.06;;;9.59;100.00
30636;BME280;17400;52.392;9.750;2024-02-21T01:35:52;101335.78;;;9.58;100.00
30636;BME280;17400;52.392;9.750;2024-02-21T01:38:38;101332.75;;;9.61;100.00
30636;BME280;17400;52.392;9.750;2024-02-21T01:41:25;101337.66;;;9.57;100.00
30636;BME280;17400;52.392;9.750;2024-02-21T01:44:13;101331.41;;;9.57;100.00
30636;BME280;17400;52.392;9.750;2024-02-21T01:47:00;101331.41;;;9.57;100.00
30636;BME280;17400;52.392;9.750;2024-02-21T01:49:46;101321.75;;;9.62;100.00
30636;BME280;17400;52.392;9.750;2024-02-21T01:52:33;101314.84;;;9.60;100.00
30636;BME280;17400;52.392;9.750;2024-02-21T01:55:21;101313.13;;;9.59;100.00
30636;BME280;17400;52.392;9.750;2024-02-21T01:58:07;101319.56;;;9.58;100.00
30636;BME280;17400;52.392;9.750;2024-02-21T02:00:56;101311.13;;;9.61;100.00
30636;BME280;17400;52.392;9.750;2024-02-21T02:03:45;101311.81;;;9.55;100.00
30636;BME280;17400;52.392;9.750;2024-02-21T02:06:32;101304.72;;;9.54;100.00
30636;BME280;17400;52.392;9.750;2024-02-21T02:09:18;101307.09;;;9.57;100.00
30636;BME280;17400;52.392;9.750;2024-02-21T02:12:06;101303.69;;;9.55;100.00
30636;BME280;17400;52.392;9.750;2024-02-21T02:14:58;101297.59;;;9.61;100.00
30636;BME280;17400;52.392;9.750;2024-02-21T02:17:45;101299.63;;;9.59;100.00
30636;BME280;17400;52.392;9.750;2024-02-21T02:20:32;101275.28;;;9.59;100.00
30636;BME280;17400;52.392;9.750;2024-02-21T02:23:22;101273.28;;;9.61;100.00
30636;BME280;17400;52.392;9.750;2024-02-21T02:26:10;101269.56;;;9.62;100.00
30636;BME280;17400;52.392;9.750;2024-02-21T02:28:57;101260.72;;;9.68;100.00
30636;BME280;17400;52.392;9.750;2024-02-21T02:31:43;101267.00;;;9.60;100.00
30636;BME280;17400;52.392;9.750;2024-02-21T02:34:29;101250.31;;;9.57;100.00
30636;BME280;17400;52.392;9.750;2024-02-21T02:37:16;101251.97;;;9.58;100.00
30636;BME280;17400;52.392;9.750;2024-02-21T02:40:05;101244.72;;;9.58;100.00
30636;BME280;17400;52.392;9.750;2024-02-21T02:42:51;101244.72;;;9.58;100.00
30636;BME280;17400;52.392;9.750;2024-02-21T02:45:40;101243.59;;;9.53;100.00
30636;BME280;17400;52.392;9.750;2024-02-21T02:48:26;101234.09;;;9.57;100.00
30636;BME280;17400;52.392;9.750;2024-02-21T02:51:13;101234.75;;;9.59;100.00
30636;BME280;17400;52.392;9.750;2024-02-21T02:53:59;101226.00;;;9.57;100.00
30636;BME280;17400;52.392;9.750;2024-02-21T02:56:46;101230.66;;;9.63;100.00
30636;BME280;17400;52.392;9.750;2024-02-21T02:59:33;101219.22;;;9.61;100.00
30636;BME280;17400;52.392;9.750;2024-02-21T03:02:20;101210.41;;;9.59;100.00
30636;BME280;17400;52.392;9.750;2024-02-21T03:05:12;101205.38;;;9.56;100.00
30636;BME280;17400;52.392;9.750;2024-02-21T03:07:59;101211.81;;;9.55;100.00
30636;BME280;17400;52.392;9.750;2024-02-21T03:10:45;101194.69;;;9.62;100.00
30636;BME280;17400;52.392;9.750;2024-02-21T03:13:33;101184.91;;;9.61;100.00
30636;BME280;17400;52.392;9.750;2024-02-21T03:16:19;101173.06;;;9.62;100.00
30636;BME280;17400;52.392;9.750;2024-02-21T03:19:06;101167.84;;;9.61;100.00
30636;BME280;17400;52.392;9.750;2024-02-21T03:21:52;101163.94;;;9.63;100.00
30636;BME280;17400;52.392;9.750;2024-02-21T03:24:39;101154.22;;;9.54;100.00
30636;BME280;17400;52.392;9.750;2024-02-21T03:27:25;101135.47;;;9.53;100.00
30636;BME280;17400;52.392;9.750;2024-02-21T03:30:13;101133.78;;;9.52;100.00
30636;BME280;17400;52.392;9.750;2024-02-21T03:32:59;101140.88;;;9.53;100.00
30636;BME280;17400;52.392;9.750;2024-02-21T03:35:46;101141.34;;;9.56;100.00
30636;BME280;17400;52.392;9.750;2024-02-21T03:38:32;101143.22;;;9.56;100.00
30636;BME280;17400;52.392;9.750;2024-02-21T03:41:19;101135.03;;;9.64;100.00
30636;BME280;17400;52.392;9.750;2024-02-21T03:44:07;101121.03;;;9.60;100.00
30636;BME280;17400;52.392;9.750;2024-02-21T03:46:58;101120.88;;;9.62;100.00
30636;BME280;17400;52.392;9.750;2024-02-21T03:49:45;101144.34;;;9.61;100.00
30636;BME280;17400;52.392;9.750;2024-02-21T03:52:31;101144.22;;;9.55;100.00
30636;BME280;17400;52.392;9.750;2024-02-21T03:55:18;101136.50;;;9.52;100.00
30636;BME280;17400;52.392;9.750;2024-02-21T03:58:05;101145.56;;;9.59;100.00
30636;BME280;17400;52.392;9.750;2024-02-21T04:00:53;101151.63;;;9.61;100.00
30636;BME280;17400;52.392;9.750;2024-02-21T04:03:42;101147.25;;;9.60;100.00
30636;BME280;17400;52.392;9.750;2024-02-21T04:06:29;101165.97;;;9.61;100.00
30636;BME280;17400;52.392;9.750;2024-02-21T04:09:15;101171.19;;;9.63;100.00
30636;BME280;17400;52.392;9.750;2024-02-21T04:12:02;101173.91;;;9.63;100.00
30636;BME280;17400;52.392;9.750;2024-02-21T04:14:49;101181.19;;;9.62;100.00
30636;BME280;17400;52.392;9.750;2024-02-21T04:17:36;101195.59;;;9.55;100.00
30636;BME280;17400;52.392;9.750;2024-02-21T04:20:23;101182.19;;;9.61;100.00
30636;BME280;17400;52.392;9.750;2024-02-21T04:23:09;101169.69;;;9.60;100.00
30636;BME280;17400;52.392;9.750;2024-02-21T04:25:56;101168.03;;;9.59;100.00
30636;BME280;17400;52.392;9.750;2024-02-21T04:28:44;101160.38;;;9.63;100.00
30636;BME280;17400;52.392;9.750;2024-02-21T04:31:32;101168.97;;;9.66;100.00
30636;BME280;17400;52.392;9.750;2024-02-21T04:34:19;101172.88;;;9.64;100.00
30636;BME280;17400;52.392;9.750;2024-02-21T04:37:09;101165.44;;;9.66;100.00
30636;BME280;17400;52.392;9.750;2024-02-21T04:39:55;101169.88;;;9.59;100.00
30636;BME280;17400;52.392;9.750;2024-02-21T04:42:41;101169.88;;;9.59;100.00
30636;BME280;17400;52.392;9.750;2024-02-21T04:45:28;101164.66;;;9.57;100.00
30636;BME280;17400;52.392;9.750;2024-02-21T04:48:14;101165.03;;;9.54;100.00
30636;BME280;17400;52.392;9.750;2024-02-21T04:51:00;101161.13;;;9.57;100.00
30636;BME280;17400;52.392;9.750;2024-02-21T04:53:49;101176.66;;;9.55;100.00
30636;BME280;17400;52.392;9.750;2024-02-21T04:56:35;101171.44;;;9.53;100.00
30636;BME280;17400;52.392;9.750;2024-02-21T04:59:21;101182.44;;;9.52;100.00
30636;BME280;17400;52.392;9.750;2024-02-21T05:02:08;101172.63;;;9.50;100.00
30636;BME280;17400;52.392;9.750;2024-02-21T05:04:57;101170.78;;;9.51;100.00
30636;BME280;17400;52.392;9.750;2024-02-21T05:07:44;101172.47;;;9.52;100.00
30636;BME280;17400;52.392;9.750;2024-02-21T05:10:33;101166.34;;;9.58;100.00
30636;BME280;17400;52.392;9.750;2024-02-21T05:13:19;101161.94;;;9.57;100.00
30636;BME280;17400;52.392;9.750;2024-02-21T05:16:06;101154.03;;;9.56;100.00
30636;BME280;17400;52.392;9.750;2024-02-21T05:18:52;101157.09;;;9.53;100.00
30636;BME280;17400;52.392;9.750;2024-02-21T05:21:39;101154.22;;;9.54;100.00
30636;BME280;17400;52.392;9.750;2024-02-21T05:24:26;101150.31;;;9.57;100.00
30636;BME280;17400;52.392;9.750;2024-02-21T05:27:14;101151.75;;;9.67;100.00
30636;BME280;17400;52.392;9.750;2024-02-21T05:30:00;101146.03;;;9.62;100.00
30636;BME280;17400;52.392;9.750;2024-02-21T05:32:46;101145.13;;;9.70;100.00
30636;BME280;17400;52.392;9.750;2024-02-21T05:35:33;101140.56;;;9.71;100.00
30636;BME280;17400;52.392;9.750;2024-02-21T05:38:20;101141.47;;;9.63;100.00
30636;BME280;17400;52.392;9.750;2024-02-21T05:41:06;101144.00;;;9.64;100.00
30636;BME280;17400;52.392;9.750;2024-02-21T05:43:57;101144.84;;;9.65;100.00
30636;BME280;17400;52.392;9.750;2024-02-21T05:46:44;101137.75;;;9.64;100.00
30636;BME280;17400;52.392;9.750;2024-02-21T05:49:31;101140.81;;;9.61;100.00
30636;BME280;17400;52.392;9.750;2024-02-21T05:52:18;101143.03;;;9.57;100.00
30636;BME280;17400;52.392;9.750;2024-02-21T05:55:06;101150.31;;;9.57;100.00
30636;BME280;17400;52.392;9.750;2024-02-21T05:57:53;101140.03;;;9.52;100.00
30636;BME280;17400;52.392;9.750;2024-02-21T06:00:42;101140.22;;;9.50;100.00
30636;BME280;17400;52.392;9.750;2024-02-21T06:03:28;101146.63;;;9.49;100.00
30636;BME280;17400;52.392;9.750;2024-02-21T06:06:15;101135.69;;;9.43;100.00
30636;BME280;17400;52.392;9.750;2024-02-21T06:09:01;101132.16;;;9.42;100.00
30636;BME280;17400;52.392;9.750;2024-02-21T06:11:48;101136.56;;;9.43;100.00
30636;BME280;17400;52.392;9.750;2024-02-21T06:14:34;101128.25;;;9.45;100.00
30636;BME280;17400;52.392;9.750;2024-02-21T06:17:23;101128.78;;;9.40;100.00
30636;BME280;17400;52.392;9.750;2024-02-21T06:20:10;101123.75;;;9.37;100.00
30636;BME280;17400;52.392;9.750;2024-02-21T06:22:57;101120.38;;;9.35;100.00
30636;BME280;17400;52.392;9.750;2024-02-21T06:25:43;101117.97;;;9.40;100.00
30636;BME280;17400;52.392;9.750;2024-02-21T06:28:30;101112.94;;;9.37;100.00
30636;BME280;17400;52.392;9.750;2024-02-21T06:31:16;101116.47;;;9.38;100.00
30636;BME280;17400;52.392;9.750;2024-02-21T06:34:04;101110.72;;;9.41;100.00
30636;BME280;17400;52.392;9.750;2024-02-21T06:36:51;101114.06;;;9.43;100.00
30636;BME280;17400;52.392;9.750;2024-02-21T06:39:37;101116.97;;;9.41;100.00
30636;BME280;17400;52.392;9.750;2024-02-21T06:42:26;101117.16;;;9.40;100.00
30636;BME280;17400;52.392;9.750;2024-02-21T06:45:12;101105.16;;;9.42;100.00
30636;BME280;17400;52.392;9.750;2024-02-21T06:47:58;101108.84;;;9.41;100.00
30636;BME280;17400;52.392;9.750;2024-02-21T06:50:47;101110.34;;;9.44;100.00
30636;BME280;17400;52.392;9.750;2024-02-21T06:53:34;101110.53;;;9.42;100.00
30636;BME280;17400;52.392;9.750;2024-02-21T06:56:20;101111.19;;;9.44;100.00
30636;BME280;17400;52.392;9.750;2024-02-21T06:59:07;101115.66;;;9.37;100.00
30636;BME280;17400;52.392;9.750;2024-02-21T07:01:54;101111.56;;;9.41;100.00
30636;BME280;17400;52.392;9.750;2024-02-21T07:04:40;101119.47;;;9.43;100.00
30636;BME280;17400;52.392;9.750;2024-02-21T07:07:28;101116.97;;;9.41;100.00
30636;BME280;17400;52.392;9.750;2024-02-21T07:10:16;101114.25;;;9.41;100.00
30636;BME280;17400;52.392;9.750;2024-02-21T07:13:03;101119.47;;;9.43;100.00
30636;BME280;17400;52.392;9.750;2024-02-21T07:15:50;101123.94;;;9.36;100.00
30636;BME280;17400;52.392;9.750;2024-02-21T07:18:36;101119.19;;;9.38;100.00
30636;BME280;17400;52.392;9.750;2024-02-21T07:21:22;101111.94;;;9.38;100.00
30636;BME280;17400;52.392;9.750;2024-02-21T07:24:10;101112.56;;;9.40;100.00
30636;BME280;17400;52.392;9.750;2024-02-21T07:26:58;101108.56;;;9.36;100.00
30636;BME280;17400;52.392;9.750;2024-02-21T07:29:49;101111.75;;;9.40;100.00
30636;BME280;17400;52.392;9.750;2024-02-21T07:32:38;101109.88;;;9.40;100.00
30636;BME280;17400;52.392;9.750;2024-02-21T07:35:24;101101.25;;;9.45;100.00
30636;BME280;17400;52.392;9.750;2024-02-21T07:38:11;101103.09;;;9.44;100.00
30636;BME280;17400;52.392;9.750;2024-02-21T07:41:00;101115.09;;;9.42;100.00
30636;BME280;17400;52.392;9.750;2024-02-21T07:43:46;101114.38;;;9.48;100.00
30636;BME280;17400;52.392;9.750;2024-02-21T07:46:33;101117.91;;;9.48;100.00
30636;BME280;17400;52.392;9.750;2024-02-21T07:49:20;101125.13;;;9.56;100.00
30636;BME280;17400;52.392;9.750;2024-02-21T07:52:07;101122.41;;;9.56;100.00
30636;BME280;17400;52.392;9.750;2024-02-21T07:54:53;101115.81;;;9.59;100.00
30636;BME280;17400;52.392;9.750;2024-02-21T07:57:40;101109.41;;;9.60;100.00
30636;BME280;17400;52.392;9.750;2024-02-21T08:00:27;101114.31;;;9.56;100.00
30636;BME280;17400;52.392;9.750;2024-02-21T08:03:13;101118.06;;;9.55;100.00
30636;BME280;17400;52.392;9.750;2024-02-21T08:06:00;101108.19;;;9.62;100.00
30636;BME280;17400;52.392;9.750;2024-02-21T08:08:47;101115.41;;;9.70;100.00
30636;BME280;17400;52.392;9.750;2024-02-21T08:11:34;101109.44;;;9.75;100.00
30636;BME280;17400;52.392;9.750;2024-02-21T08:14:22;101114.00;;;9.74;100.00
30636;BME280;17400;52.392;9.750;2024-02-21T08:17:10;101106.53;;;9.76;100.00
30636;BME280;17400;52.392;9.750;2024-02-21T08:19:56;101107.69;;;9.82;100.00
30636;BME280;17400;52.392;9.750;2024-02-21T08:22:42;101116.94;;;9.88;100.00
30636;BME280;17400;52.392;9.750;2024-02-21T08:25:29;101108.19;;;9.86;100.00
30636;BME280;17400;52.392;9.750;2024-02-21T08:28:16;101109.84;;;9.87;100.00
30636;BME280;17400;52.392;9.750;2024-02-21T08:31:06;101097.00;;;9.89;100.00
30636;BME280;17400;52.392;9.750;2024-02-21T08:33:53;101092.16;;;9.99;100.00
30636;BME280;17400;52.392;9.750;2024-02-21T08:36:39;101083.97;;;10.07;100.00
30636;BME280;17400;52.392;9.750;2024-02-21T08:39:26;101085.38;;;10.03;100.00
30636;BME280;17400;52.392;9.750;2024-02-21T08:42:13;101084.69;;;10.01;100.00
30636;BME280;17400;52.392;9.750;2024-02-21T08:45:00;101083.09;;;10.07;100.00
30636;BME280;17400;52.392;9.750;2024-02-21T08:47:47;101079.03;;;10.11;100.00
30636;BME280;17400;52.392;9.750;2024-02-21T08:50:34;101078.84;;;10.12;100.00
30636;BME280;17400;52.392;9.750;2024-02-21T08:53:21;101076.72;;;10.23;100.00
30636;BME280;17400;52.392;9.750;2024-02-21T08:56:07;101054.31;;;10.29;100.00
30636;BME280;17400;52.392;9.750;2024-02-21T08:58:53;101052.56;;;10.36;100.00
30636;BME280;17400;52.392;9.750;2024-02-21T09:01:40;101053.41;;;10.37;100.00
30636;BME280;17400;52.392;9.750;2024-02-21T09:04:27;101056.81;;;10.30;100.00
30636;BME280;17400;52.392;9.750;2024-02-21T09:07:13;101052.38;;;10.38;100.00
30636;BME280;17400;52.392;9.750;2024-02-21T09:10:00;101052.19;;;10.39;100.00
30636;BME280;17400;52.392;9.750;2024-02-21T09:12:47;101051.25;;;10.47;100.00
30636;BME280;17400;52.392;9.750;2024-02-21T09:15:34;101046.03;;;10.45;100.00
30636;BME280;17400;52.392;9.750;2024-02-21T09:18:20;101044.44;;;10.51;100.00
30636;BME280;17400;52.392;9.750;2024-02-21T09:21:08;101042.38;;;10.53;100.00
30636;BME280;17400;52.392;9.750;2024-02-21T09:23:57;101049.47;;;10.54;100.00
30636;BME280;17400;52.392;9.750;2024-02-21T09:26:45;101034.72;;;10.57;100.00
30636;BME280;17400;52.392;9.750;2024-02-21T09:29:32;101039.38;;;10.63;100.00
30636;BME280;17400;52.392;9.750;2024-02-21T09:32:19;101043.66;;;10.72;100.00
30636;BME280;17400;52.392;9.750;2024-02-21T09:35:06;101029.91;;;10.74;100.00
30636;BME280;17400;52.392;9.750;2024-02-21T09:37:54;101026.94;;;10.83;100.00
30636;BME280;17400;52.392;9.750;2024-02-21T09:40:40;101027.94;;;10.82;100.00
30636;BME280;17400;52.392;9.750;2024-02-21T09:43:27;101019.56;;;10.77;100.00
30636;BME280;17400;52.392;9.750;2024-02-21T09:46:17;101022.72;;;10.81;100.00
30636;BME280;17400;52.392;9.750;2024-02-21T09:49:11;101018.06;;;10.75;100.00
30636;BME280;17400;52.392;9.750;2024-02-21T09:52:01;101022.91;;;10.79;100.00
30636;BME280;17400;52.392;9.750;2024-02-21T09:54:50;101021.50;;;10.83;100.00
30636;BME280;17400;52.392;9.750;2024-02-21T09:57:38;101027.00;;;10.90;100.00
30636;BME280;17400;52.392;9.750;2024-02-21T10:00:25;101028.84;;;10.90;100.00
30636;BME280;17400;52.392;9.750;2024-02-21T10:03:11;101011.81;;;10.74;100.00
30636;BME280;17400;52.392;9.750;2024-02-21T10:05:58;101026.25;;;10.81;100.00
30636;BME280;17400;52.392;9.750;2024-02-21T10:08:51;101027.41;;;10.72;100.00
30636;BME280;17400;52.392;9.750;2024-02-21T10:11:39;101018.88;;;10.75;100.00
30636;BME280;17400;52.392;9.750;2024-02-21T10:14:26;101015.56;;;10.95;100.00
30636;BME280;17400;52.392;9.750;2024-02-21T10:17:16;101016.78;;;10.92;100.00
30636;BME280;17400;52.392;9.750;2024-02-21T10:20:08;101002.34;;;10.85;99.18
30636;BME280;17400;52.392;9.750;2024-02-21T10:23:02;101002.69;;;10.97;99.36
30636;BME280;17400;52.392;9.750;2024-02-21T10:25:53;101001.63;;;10.98;99.90
30636;BME280;17400;52.392;9.750;2024-02-21T10:28:41;100992.34;;;11.07;99.25
30636;BME280;17400;52.392;9.750;2024-02-21T10:31:29;100991.13;;;11.10;98.74
30636;BME280;17400;52.392;9.750;2024-02-21T10:34:16;100984.47;;;11.12;98.84
30636;BME280;17400;52.392;9.750;2024-02-21T10:37:04;100978.22;;;11.12;97.01
30636;BME280;17400;52.392;9.750;2024-02-21T10:39:50;100983.44;;;11.13;96.02
30636;BME280;17400;52.392;9.750;2024-02-21T10:42:37;100980.44;;;11.23;97.98
30636;BME280;17400;52.392;9.750;2024-02-21T10:45:29;100961.31;;;11.31;96.47
30636;BME280;17400;52.392;9.750;2024-02-21T10:48:21;100958.84;;;11.37;95.29
30636;BME280;17400;52.392;9.750;2024-02-21T10:51:15;100951.94;;;11.34;93.21
30636;BME280;17400;52.392;9.750;2024-02-21T10:54:13;100945.78;;;11.47;94.83
30636;BME280;17400;52.392;9.750;2024-02-21T10:57:04;100948.34;;;11.55;94.62
30636;BME280;17400;52.392;9.750;2024-02-21T10:59:51;100938.13;;;11.57;93.08
30636;BME280;17400;52.392;9.750;2024-02-21T11:02:39;100941.84;;;11.49;92.22
30636;BME280;17400;52.392;9.750;2024-02-21T11:05:26;100933.28;;;11.46;90.20
30636;BME280;17400;52.392;9.750;2024-02-21T11:08:14;100930.31;;;11.41;89.39
30636;BME280;17400;52.392;9.750;2024-02-21T11:11:00;100920.97;;;11.43;88.98
30636;BME280;17400;52.392;9.750;2024-02-21T11:13:46;100919.97;;;11.51;89.06
30636;BME280;17400;52.392;9.750;2024-02-21T11:16:37;100906.00;;;11.54;89.73
30636;BME280;17400;52.392;9.750;2024-02-21T11:19:27;100904.38;;;11.60;87.99
30636;BME280;17400;52.392;9.750;2024-02-21T11:22:15;100897.50;;;11.64;88.14
30636;BME280;17400;52.392;9.750;2024-02-21T11:25:09;100894.00;;;11.70;87.17
30636;BME280;17400;52.392;9.750;2024-02-21T11:28:01;100896.22;;;11.60;87.43
30636;BME280;17400;52.392;9.750;2024-02-21T11:30:47;100892.97;;;11.71;88.36
30636;BME280;17400;52.392;9.750;2024-02-21T11:33:39;100885.50;;;11.80;87.59
30636;BME280;17400;52.392;9.750;2024-02-21T11:36:27;100880.69;;;11.75;86.22
30636;BME280;17400;52.392;9.750;2024-02-21T11:39:18;100878.16;;;11.74;86.87
30636;BME280;17400;52.392;9.750;2024-02-21T11:42:05;100872.13;;;11.78;85.97
30636;BME280;17400;52.392;9.750;2024-02-21T11:44:53;100866.09;;;11.76;83.77
30636;BME280;17400;52.392;9.750;2024-02-21T11:47:42;100865.00;;;11.71;83.06
30636;BME280;17400;52.392;9.750;2024-02-21T11:50:31;100863.13;;;11.71;83.09
30636;BME280;17400;52.392;9.750;2024-02-21T11:53:20;100852.06;;;11.66;85.00
30636;BME280;17400;52.392;9.750;2024-02-21T11:56:06;100848.13;;;11.75;83.59
30636;BME280;17400;52.392;9.750;2024-02-21T11:58:52;100840.00;;;11.75;83.14
30636;BME280;17400;52.392;9.750;2024-02-21T12:01:38;100833.94;;;11.73;82.41
30636;BME280;17400;52.392;9.750;2024-02-21T12:04:25;100829.19;;;11.82;82.86
30636;BME280;17400;52.392;9.750;2024-02-21T12:07:11;100826.06;;;11.92;81.65
30636;BME280;17400;52.392;9.750;2024-02-21T12:10:00;100813.81;;;11.96;80.53
30636;BME280;17400;52.392;9.750;2024-02-21T12:12:46;100805.00;;;11.94;79.78
30636;BME280;17400;52.392;9.750;2024-02-21T12:15:32;100794.16;;;11.94;78.21
30636;BME280;17400;52.392;9.750;2024-02-21T12:18:19;100803.97;;;11.88;78.20
30636;BME280;17400;52.392;9.750;2024-02-21T12:21:06;100803.34;;;11.93;77.99
30636;BME280;17400;52.392;9.750;2024-02-21T12:23:52;100800.41;;;11.88;76.80
30636;BME280;17400;52.392;9.750;2024-02-21T12:26:40;100797.28;;;11.91;76.13
30636;BME280;17400;52.392;9.750;2024-02-21T12:29:26;100798.81;;;12.00;76.42
30636;BME280;17400;52.392;9.750;2024-02-21T12:32:14;100791.28;;;12.02;75.28
30636;BME280;17400;52.392;9.750;2024-02-21T12:35:00;100782.97;;;12.17;76.00
30636;BME280;17400;52.392;9.750;2024-02-21T12:37:47;100785.06;;;12.22;73.03
30636;BME280;17400;52.392;9.750;2024-02-21T12:40:33;100784.88;;;12.23;71.95
30636;BME280;17400;52.392;9.750;2024-02-21T12:43:21;100778.63;;;12.29;72.20
30636;BME280;17400;52.392;9.750;2024-02-21T12:46:08;100778.41;;;12.38;70.45
30636;BME280;17400;52.392;9.750;2024-02-21T12:48:54;100777.16;;;12.33;70.05
30636;BME280;17400;52.392;9.750;2024-02-21T12:51:40;100781.13;;;12.31;70.04
30636;BME280;17400;52.392;9.750;2024-02-21T12:54:27;100775.47;;;12.32;70.12
30636;BME280;17400;52.392;9.750;2024-02-21T12:57:15;100779.44;;;12.43;70.41
30636;BME280;17400;52.392;9.750;2024-02-21T13:00:03;100778.19;;;12.46;71.33
30636;BME280;17400;52.392;9.750;2024-02-21T13:02:53;100763.59;;;12.40;69.46
30636;BME280;17400;52.392;9.750;2024-02-21T13:05:39;100766.94;;;12.42;69.79
30636;BME280;17400;52.392;9.750;2024-02-21T13:08:26;100747.72;;;12.44;71.46
30636;BME280;17400;52.392;9.750;2024-02-21T13:11:13;100732.69;;;12.48;71.49
30636;BME280;17400;52.392;9.750;2024-02-21T13:14:00;100722.25;;;12.58;70.48
30636;BME280;17400;52.392;9.750;2024-02-21T13:16:47;100717.63;;;12.59;70.35
30636;BME280;17400;52.392;9.750;2024-02-21T13:19:34;100706.78;;;12.52;70.28
30636;BME280;17400;52.392;9.750;2024-02-21T13:22:20;100698.41;;;12.54;70.47
30636;BME280;17400;52.392;9.750;2024-02-21T13:25:07;100696.75;;;12.53;70.69
30636;BME280;17400;52.392;9.750;2024-02-21T13:27:54;100685.69;;;12.41;70.86
30636;BME280;17400;52.392;9.750;2024-02-21T13:30:41;100678.41;;;12.28;72.21
30636;BME280;17400;52.392;9.750;2024-02-21T13:33:28;100673.38;;;12.25;72.40
30636;BME280;17400;52.392;9.750;2024-02-21T13:36:15;100667.13;;;12.24;72.40
30636;BME280;17400;52.392;9.750;2024-02-21T13:39:02;100670.03;;;12.23;72.87
30636;BME280;17400;52.392;9.750;2024-02-21T13:41:51;100657.72;;;12.20;72.46
30636;BME280;17400;52.392;9.750;2024-02-21T13:44:37;100644.97;;;12.21;74.41
30636;BME280;17400;52.392;9.750;2024-02-21T13:47:23;100626.44;;;12.04;74.14
30636;BME280;17400;52.392;9.750;2024-02-21T13:50:10;100618.50;;;12.03;73.67
30636;BME280;17400;52.392;9.750;2024-02-21T13:52:59;100617.88;;;12.00;74.64
30636;BME280;17400;52.392;9.750;2024-02-21T13:55:46;100607.84;;;12.01;74.41
30636;BME280;17400;52.392;9.750;2024-02-21T13:58:33;100602.22;;;12.03;74.01
30636;BME280;17400;52.392;9.750;2024-02-21T14:01:21;100601.38;;;12.02;73.94
30636;BME280;17400;52.392;9.750;2024-02-21T14:04:07;100593.66;;;11.99;74.14
30636;BME280;17400;52.392;9.750;2024-02-21T14:06:55;100582.38;;;12.02;74.06
30636;BME280;17400;52.392;9.750;2024-02-21T14:09:41;100582.81;;;11.99;74.29
30636;BME280;17400;52.392;9.750;2024-02-21T14:12:28;100587.59;;;11.97;73.78
30636;BME280;17400;52.392;9.750;2024-02-21T14:15:14;100592.78;;;11.92;73.22
30636;BME280;17400;52.392;9.750;2024-02-21T14:18:02;100589.03;;;11.86;74.08
30636;BME280;17400;52.392;9.750;2024-02-21T14:20:51;100591.75;;;11.86;75.46
30636;BME280;17400;52.392;9.750;2024-02-21T14:23:39;100574.44;;;11.94;76.96
30636;BME280;17400;52.392;9.750;2024-02-21T14:26:26;100549.00;;;12.02;77.77
30636;BME280;17400;52.392;9.750;2024-02-21T14:29:12;100527.69;;;12.05;76.93
30636;BME280;17400;52.392;9.750;2024-02-21T14:31:58;100506.00;;;12.12;79.33